sensor_id;sensor_type;location;lat;lon;timestamp;pressure;altitude;pressure_sealevel;temperature;humidity
65010;BME280;51556;50.002;22.014;2023-08-31T00:00:29;98332.46;;;19.67;80.37
65010;BME280;51556;50.002;22.014;2023-08-31T00:02:55;98334.80;;;19.71;80.43
65010;BME280;51556;50.002;22.014;2023-08-31T00:05:20;98331.27;;;19.75;80.36
65010;BME280;51556;50.002;22.014;2023-08-31T00:07:46;98331.14;;;19.77;80.17
65010;BME280;51556;50.002;22.014;2023-08-31T00:10:11;98336.02;;;19.74;80.14
65010;BME280;51556;50.002;22.014;2023-08-31T00:12:37;98335.75;;;19.73;80.01
65010;BME280;51556;50.002;22.014;2023-08-31T00:15:03;98335.27;;;19.70;80.11
65010;BME280;51556;50.002;22.014;2023-08-31T00:17:32;98335.04;;;19.66;80.22
65010;BME280;51556;50.002;22.014;2023-08-31T00:19:58;98333.92;;;19.62;80.16
65010;BME280;51556;50.002;22.014;2023-08-31T00:22:23;98337.81;;;19.61;80.29
65010;BME280;51556;50.002;22.014;2023-08-31T00:24:49;98335.59;;;19.59;80.36
65010;BME280;51556;50.002;22.014;2023-08-31T00:27:16;98340.56;;;19.60;80.43
65010;BME280;51556;50.002;22.014;2023-08-31T00:29:42;98344.05;;;19.61;80.51
65010;BME280;51556;50.002;22.014;2023-08-31T00:32:11;98341.02;;;19.61;80.44
65010;BME280;51556;50.002;22.014;2023-08-31T00:34:36;98341.51;;;19.57;80.43
65010;BME280;51556;50.002;22.014;2023-08-31T00:37:02;98345.77;;;19.53;80.46
65010;BME280;51556;50.002;22.014;2023-08-31T00:39:28;98349.17;;;19.52;80.69
65010;BME280;51556;50.002;22.014;2023-08-31T00:41:53;98350.02;;;19.53;80.85
65010;BME280;51556;50.002;22.014;2023-08-31T00:44:18;98352.45;;;19.54;80.84
65010;BME280;51556;50.002;22.014;2023-08-31T00:46:45;98351.52;;;19.54;80.84
65010;BME280;51556;50.002;22.014;2023-08-31T00:49:10;98350.84;;;19.54;80.73
65010;BME280;51556;50.002;22.014;2023-08-31T00:51:36;98350.89;;;19.53;80.90
65010;BME280;51556;50.002;22.014;2023-08-31T00:54:02;98346.92;;;19.54;81.06
65010;BME280;51556;50.002;22.014;2023-08-31T00:56:29;98345.94;;;19.52;80.93
65010;BME280;51556;50.002;22.014;2023-08-31T00:58:54;98344.13;;;19.53;81.00
65010;BME280;51556;50.002;22.014;2023-08-31T01:01:40;98350.73;;;19.55;81.01
65010;BME280;51556;50.002;22.014;2023-08-31T01:04:16;98352.43;;;19.56;81.03
65010;BME280;51556;50.002;22.014;2023-08-31T01:09:38;98356.73;;;19.54;80.69
65010;BME280;51556;50.002;22.014;2023-08-31T01:12:43;98356.55;;;19.52;80.65
65010;BME280;51556;50.002;22.014;2023-08-31T01:15:13;98361.38;;;19.46;80.44
65010;BME280;51556;50.002;22.014;2023-08-31T01:17:44;98361.21;;;19.46;80.27
65010;BME280;51556;50.002;22.014;2023-08-31T01:20:11;98366.98;;;19.43;79.97
65010;BME280;51556;50.002;22.014;2023-08-31T01:23:00;98374.39;;;19.34;79.88
65010;BME280;51556;50.002;22.014;2023-08-31T01:25:29;98371.52;;;19.30;79.83
65010;BME280;51556;50.002;22.014;2023-08-31T01:27:56;98373.75;;;19.25;79.72
65010;BME280;51556;50.002;22.014;2023-08-31T01:30:21;98376.83;;;19.22;80.12
65010;BME280;51556;50.002;22.014;2023-08-31T01:32:47;98379.38;;;19.19;80.24
65010;BME280;51556;50.002;22.014;2023-08-31T01:35:15;98382.98;;;19.11;80.49
65010;BME280;51556;50.002;22.014;2023-08-31T01:42:48;98386.61;;;18.85;81.09
65010;BME280;51556;50.002;22.014;2023-08-31T01:45:19;98383.78;;;18.80;81.31
65010;BME280;51556;50.002;22.014;2023-08-31T01:47:46;98384.09;;;18.78;81.67
65010;BME280;51556;50.002;22.014;2023-08-31T01:50:11;98377.62;;;18.77;81.58
65010;BME280;51556;50.002;22.014;2023-08-31T01:52:37;98377.23;;;18.77;81.44
65010;BME280;51556;50.002;22.014;2023-08-31T01:55:03;98376.88;;;18.75;81.35
65010;BME280;51556;50.002;22.014;2023-08-31T01:57:28;98379.00;;;18.77;81.45
65010;BME280;51556;50.002;22.014;2023-08-31T01:59:54;98379.29;;;18.80;81.15
65010;BME280;51556;50.002;22.014;2023-08-31T02:02:19;98379.88;;;18.75;80.79
65010;BME280;51556;50.002;22.014;2023-08-31T02:04:46;98377.85;;;18.71;80.95
65010;BME280;51556;50.002;22.014;2023-08-31T02:07:11;98377.96;;;18.69;81.02
65010;BME280;51556;50.002;22.014;2023-08-31T02:09:36;98380.38;;;18.70;80.89
65010;BME280;51556;50.002;22.014;2023-08-31T02:12:02;98379.95;;;18.69;80.77
65010;BME280;51556;50.002;22.014;2023-08-31T02:14:29;98380.02;;;18.63;80.63
65010;BME280;51556;50.002;22.014;2023-08-31T02:16:55;98379.05;;;18.52;80.64
65010;BME280;51556;50.002;22.014;2023-08-31T02:19:20;98382.60;;;18.47;80.73
65010;BME280;51556;50.002;22.014;2023-08-31T02:21:46;98384.27;;;18.44;80.69
65010;BME280;51556;50.002;22.014;2023-08-31T02:24:11;98382.40;;;18.43;80.76
65010;BME280;51556;50.002;22.014;2023-08-31T02:26:37;98383.89;;;18.39;80.79
65010;BME280;51556;50.002;22.014;2023-08-31T02:29:03;98386.98;;;18.38;81.01
65010;BME280;51556;50.002;22.014;2023-08-31T02:31:28;98388.12;;;18.40;80.97
65010;BME280;51556;50.002;22.014;2023-08-31T02:33:54;98387.18;;;18.41;81.16
65010;BME280;51556;50.002;22.014;2023-08-31T02:36:19;98385.58;;;18.41;81.39
65010;BME280;51556;50.002;22.014;2023-08-31T02:38:46;98389.13;;;18.43;81.61
65010;BME280;51556;50.002;22.014;2023-08-31T02:41:11;98392.33;;;18.41;81.35
65010;BME280;51556;50.002;22.014;2023-08-31T02:43:37;98387.98;;;18.32;81.36
65010;BME280;51556;50.002;22.014;2023-08-31T02:46:03;98392.54;;;18.31;81.61
65010;BME280;51556;50.002;22.014;2023-08-31T02:48:29;98394.66;;;18.31;81.58
65010;BME280;51556;50.002;22.014;2023-08-31T02:50:59;98396.41;;;18.29;81.31
65010;BME280;51556;50.002;22.014;2023-08-31T02:53:29;98398.32;;;18.25;81.46
65010;BME280;51556;50.002;22.014;2023-08-31T02:55:55;98402.85;;;18.21;81.39
65010;BME280;51556;50.002;22.014;2023-08-31T02:58:20;98404.88;;;18.20;81.45
65010;BME280;51556;50.002;22.014;2023-08-31T03:00:46;98405.16;;;18.24;81.61
65010;BME280;51556;50.002;22.014;2023-08-31T03:03:16;98409.52;;;18.27;81.37
65010;BME280;51556;50.002;22.014;2023-08-31T03:05:42;98413.90;;;18.26;80.98
65010;BME280;51556;50.002;22.014;2023-08-31T03:08:08;98413.75;;;18.25;81.00
65010;BME280;51556;50.002;22.014;2023-08-31T03:10:33;98417.25;;;18.22;80.77
65010;BME280;51556;50.002;22.014;2023-08-31T03:12:59;98420.11;;;18.17;80.89
65010;BME280;51556;50.002;22.014;2023-08-31T03:15:24;98423.65;;;18.14;81.05
65010;BME280;51556;50.002;22.014;2023-08-31T03:17:50;98423.10;;;18.17;80.93
65010;BME280;51556;50.002;22.014;2023-08-31T03:20:15;98423.73;;;18.18;80.75
65010;BME280;51556;50.002;22.014;2023-08-31T03:22:41;98423.61;;;18.20;80.64
65010;BME280;51556;50.002;22.014;2023-08-31T03:25:06;98425.16;;;18.20;80.26
65010;BME280;51556;50.002;22.014;2023-08-31T03:27:32;98427.86;;;18.20;80.23
65010;BME280;51556;50.002;22.014;2023-08-31T03:29:57;98434.75;;;18.19;80.25
65010;BME280;51556;50.002;22.014;2023-08-31T03:32:23;98443.05;;;18.17;80.39
65010;BME280;51556;50.002;22.014;2023-08-31T03:34:48;98446.87;;;18.19;80.75
65010;BME280;51556;50.002;22.014;2023-08-31T03:37:13;98451.84;;;18.19;80.59
65010;BME280;51556;50.002;22.014;2023-08-31T03:39:39;98459.26;;;18.15;80.38
65010;BME280;51556;50.002;22.014;2023-08-31T03:42:06;98456.95;;;18.15;80.57
65010;BME280;51556;50.002;22.014;2023-08-31T03:44:32;98462.91;;;18.16;80.63
65010;BME280;51556;50.002;22.014;2023-08-31T03:46:57;98465.85;;;18.17;80.57
65010;BME280;51556;50.002;22.014;2023-08-31T03:49:22;98466.39;;;18.17;80.49
65010;BME280;51556;50.002;22.014;2023-08-31T03:51:48;98472.14;;;18.21;80.31
65010;BME280;51556;50.002;22.014;2023-08-31T03:54:13;98469.42;;;18.20;80.23
65010;BME280;51556;50.002;22.014;2023-08-31T03:56:39;98471.27;;;18.16;80.08
65010;BME280;51556;50.002;22.014;2023-08-31T03:59:05;98470.05;;;18.13;80.13
65010;BME280;51556;50.002;22.014;2023-08-31T04:01:30;98475.20;;;18.11;80.21
65010;BME280;51556;50.002;22.014;2023-08-31T04:03:56;98474.22;;;18.10;80.53
65010;BME280;51556;50.002;22.014;2023-08-31T04:06:21;98477.02;;;18.10;80.73
65010;BME280;51556;50.002;22.014;2023-08-31T04:08:47;98485.48;;;18.12;80.79
65010;BME280;51556;50.002;22.014;2023-08-31T04:11:12;98485.54;;;18.13;80.89
65010;BME280;51556;50.002;22.014;2023-08-31T04:13:38;98484.09;;;18.14;80.74
65010;BME280;51556;50.002;22.014;2023-08-31T04:16:03;98480.80;;;18.12;80.36
65010;BME280;51556;50.002;22.014;2023-08-31T04:18:29;98479.36;;;18.10;80.44
65010;BME280;51556;50.002;22.014;2023-08-31T04:20:54;98480.38;;;18.11;80.51
65010;BME280;51556;50.002;22.014;2023-08-31T04:23:20;98482.55;;;18.15;80.63
65010;BME280;51556;50.002;22.014;2023-08-31T04:25:46;98478.70;;;18.21;80.46
65010;BME280;51556;50.002;22.014;2023-08-31T04:28:13;98480.70;;;18.23;80.55
65010;BME280;51556;50.002;22.014;2023-08-31T04:30:39;98479.91;;;18.27;80.37
65010;BME280;51556;50.002;22.014;2023-08-31T04:33:06;98484.06;;;18.31;80.38
65010;BME280;51556;50.002;22.014;2023-08-31T04:35:32;98488.15;;;18.36;80.33
65010;BME280;51556;50.002;22.014;2023-08-31T04:37:57;98497.52;;;18.33;79.32
65010;BME280;51556;50.002;22.014;2023-08-31T04:40:23;98502.08;;;18.26;79.23
65010;BME280;51556;50.002;22.014;2023-08-31T04:42:50;98504.73;;;18.19;79.64
65010;BME280;51556;50.002;22.014;2023-08-31T04:45:15;98503.02;;;18.20;79.56
65010;BME280;51556;50.002;22.014;2023-08-31T04:47:41;98504.37;;;18.21;79.58
65010;BME280;51556;50.002;22.014;2023-08-31T04:50:07;98507.34;;;18.27;79.63
65010;BME280;51556;50.002;22.014;2023-08-31T04:52:32;98509.50;;;18.29;79.34
65010;BME280;51556;50.002;22.014;2023-08-31T04:55:00;98512.42;;;18.28;79.15
65010;BME280;51556;50.002;22.014;2023-08-31T04:57:26;98518.34;;;18.30;79.23
65010;BME280;51556;50.002;22.014;2023-08-31T04:59:51;98518.46;;;18.33;79.31
65010;BME280;51556;50.002;22.014;2023-08-31T05:02:17;98523.65;;;18.35;78.87
65010;BME280;51556;50.002;22.014;2023-08-31T05:04:42;98527.89;;;18.31;78.71
65010;BME280;51556;50.002;22.014;2023-08-31T05:07:07;98527.34;;;18.29;79.28
65010;BME280;51556;50.002;22.014;2023-08-31T05:09:33;98529.75;;;18.30;78.79
65010;BME280;51556;50.002;22.014;2023-08-31T05:12:01;98530.58;;;18.28;78.83
65010;BME280;51556;50.002;22.014;2023-08-31T05:14:27;98532.30;;;18.29;79.09
65010;BME280;51556;50.002;22.014;2023-08-31T05:16:53;98530.90;;;18.34;79.37
65010;BME280;51556;50.002;22.014;2023-08-31T05:19:18;98530.64;;;18.40;79.25
65010;BME280;51556;50.002;22.014;2023-08-31T05:21:43;98533.02;;;18.44;79.06
65010;BME280;51556;50.002;22.014;2023-08-31T05:24:09;98537.85;;;18.44;78.37
65010;BME280;51556;50.002;22.014;2023-08-31T05:26:34;98536.08;;;18.44;78.89
65010;BME280;51556;50.002;22.014;2023-08-31T05:29:00;98533.92;;;18.47;78.74
65010;BME280;51556;50.002;22.014;2023-08-31T05:31:25;98536.14;;;18.46;78.70
65010;BME280;51556;50.002;22.014;2023-08-31T05:33:50;98536.46;;;18.49;78.94
65010;BME280;51556;50.002;22.014;2023-08-31T05:36:16;98537.60;;;18.53;78.66
65010;BME280;51556;50.002;22.014;2023-08-31T05:38:41;98537.88;;;18.51;78.29
65010;BME280;51556;50.002;22.014;2023-08-31T05:41:07;98537.30;;;18.50;78.28
65010;BME280;51556;50.002;22.014;2023-08-31T05:43:35;98538.82;;;18.48;77.80
65010;BME280;51556;50.002;22.014;2023-08-31T05:46:01;98545.33;;;18.34;76.78
65010;BME280;51556;50.002;22.014;2023-08-31T05:48:27;98548.00;;;18.26;77.60
65010;BME280;51556;50.002;22.014;2023-08-31T05:50:54;98552.98;;;18.24;77.96
65010;BME280;51556;50.002;22.014;2023-08-31T05:53:20;98555.27;;;18.29;78.41
65010;BME280;51556;50.002;22.014;2023-08-31T05:55:45;98555.66;;;18.36;78.48
65010;BME280;51556;50.002;22.014;2023-08-31T05:58:10;98555.83;;;18.39;78.45
65010;BME280;51556;50.002;22.014;2023-08-31T06:00:36;98555.88;;;18.39;77.87
65010;BME280;51556;50.002;22.014;2023-08-31T06:03:01;98556.45;;;18.35;78.04
65010;BME280;51556;50.002;22.014;2023-08-31T06:05:29;98553.46;;;18.37;77.79
65010;BME280;51556;50.002;22.014;2023-08-31T06:07:56;98555.70;;;18.41;77.64
65010;BME280;51556;50.002;22.014;2023-08-31T06:10:22;98558.05;;;18.43;77.39
65010;BME280;51556;50.002;22.014;2023-08-31T06:12:49;98561.55;;;18.42;76.65
65010;BME280;51556;50.002;22.014;2023-08-31T06:15:15;98565.31;;;18.39;76.67
65010;BME280;51556;50.002;22.014;2023-08-31T06:17:41;98569.55;;;18.32;76.14
65010;BME280;51556;50.002;22.014;2023-08-31T06:20:07;98569.61;;;18.25;76.42
65010;BME280;51556;50.002;22.014;2023-08-31T06:22:34;98574.05;;;18.26;76.91
65010;BME280;51556;50.002;22.014;2023-08-31T06:24:59;98581.20;;;18.28;77.11
65010;BME280;51556;50.002;22.014;2023-08-31T06:27:25;98585.89;;;18.27;76.98
65010;BME280;51556;50.002;22.014;2023-08-31T06:29:50;98583.79;;;18.29;77.46
65010;BME280;51556;50.002;22.014;2023-08-31T06:32:16;98589.38;;;18.33;77.75
65010;BME280;51556;50.002;22.014;2023-08-31T06:34:42;98588.73;;;18.37;77.14
65010;BME280;51556;50.002;22.014;2023-08-31T06:37:08;98592.11;;;18.40;77.14
65010;BME280;51556;50.002;22.014;2023-08-31T06:39:33;98594.59;;;18.46;77.02
65010;BME280;51556;50.002;22.014;2023-08-31T06:41:59;98596.39;;;18.48;76.58
65010;BME280;51556;50.002;22.014;2023-08-31T06:44:30;98596.49;;;18.46;76.04
65010;BME280;51556;50.002;22.014;2023-08-31T06:46:56;98597.05;;;18.44;76.24
65010;BME280;51556;50.002;22.014;2023-08-31T06:49:24;98597.52;;;18.42;75.98
65010;BME280;51556;50.002;22.014;2023-08-31T06:51:50;98603.77;;;18.39;75.27
65010;BME280;51556;50.002;22.014;2023-08-31T06:54:15;98601.14;;;18.33;74.60
65010;BME280;51556;50.002;22.014;2023-08-31T06:56:40;98610.45;;;18.30;74.83
65010;BME280;51556;50.002;22.014;2023-08-31T06:59:06;98614.78;;;18.27;74.25
65010;BME280;51556;50.002;22.014;2023-08-31T07:01:31;98618.11;;;18.22;74.53
65010;BME280;51556;50.002;22.014;2023-08-31T07:03:58;98624.10;;;18.21;74.62
65010;BME280;51556;50.002;22.014;2023-08-31T07:06:23;98627.77;;;18.22;75.02
65010;BME280;51556;50.002;22.014;2023-08-31T07:08:49;98630.92;;;18.28;75.29
65010;BME280;51556;50.002;22.014;2023-08-31T07:11:15;98631.64;;;18.33;75.09
65010;BME280;51556;50.002;22.014;2023-08-31T07:13:41;98634.60;;;18.36;74.94
65010;BME280;51556;50.002;22.014;2023-08-31T07:16:06;98634.95;;;18.39;74.74
65010;BME280;51556;50.002;22.014;2023-08-31T07:18:32;98641.41;;;18.41;74.52
65010;BME280;51556;50.002;22.014;2023-08-31T07:20:57;98641.02;;;18.39;74.44
65010;BME280;51556;50.002;22.014;2023-08-31T07:23:23;98644.25;;;18.41;74.50
65010;BME280;51556;50.002;22.014;2023-08-31T07:25:49;98647.25;;;18.44;74.77
65010;BME280;51556;50.002;22.014;2023-08-31T07:28:14;98651.15;;;18.47;74.52
65010;BME280;51556;50.002;22.014;2023-08-31T07:30:40;98650.15;;;18.49;74.19
65010;BME280;51556;50.002;22.014;2023-08-31T07:33:06;98655.08;;;18.47;73.82
65010;BME280;51556;50.002;22.014;2023-08-31T07:35:32;98654.83;;;18.48;74.35
65010;BME280;51556;50.002;22.014;2023-08-31T07:37:57;98655.60;;;18.52;74.27
65010;BME280;51556;50.002;22.014;2023-08-31T07:40:23;98655.80;;;18.55;74.10
65010;BME280;51556;50.002;22.014;2023-08-31T07:42:48;98657.36;;;18.53;74.04
65010;BME280;51556;50.002;22.014;2023-08-31T07:45:15;98661.55;;;18.51;74.95
65010;BME280;51556;50.002;22.014;2023-08-31T07:47:40;98665.63;;;18.57;75.87
65010;BME280;51556;50.002;22.014;2023-08-31T07:50:06;98667.10;;;18.58;75.55
65010;BME280;51556;50.002;22.014;2023-08-31T07:52:32;98671.27;;;18.60;75.52
65010;BME280;51556;50.002;22.014;2023-08-31T07:54:57;98673.12;;;18.62;75.22
65010;BME280;51556;50.002;22.014;2023-08-31T07:57:23;98673.72;;;18.56;74.32
65010;BME280;51556;50.002;22.014;2023-08-31T07:59:48;98670.74;;;18.53;74.35
65010;BME280;51556;50.002;22.014;2023-08-31T08:02:13;98674.77;;;18.51;75.03
65010;BME280;51556;50.002;22.014;2023-08-31T08:04:41;98674.15;;;18.52;75.31
65010;BME280;51556;50.002;22.014;2023-08-31T08:07:07;98673.31;;;18.54;75.27
65010;BME280;51556;50.002;22.014;2023-08-31T08:09:34;98675.13;;;18.48;74.82
65010;BME280;51556;50.002;22.014;2023-08-31T08:11:59;98670.52;;;18.43;74.96
65010;BME280;51556;50.002;22.014;2023-08-31T08:14:24;98671.34;;;18.47;75.48
65010;BME280;51556;50.002;22.014;2023-08-31T08:16:50;98676.32;;;18.52;75.75
65010;BME280;51556;50.002;22.014;2023-08-31T08:19:23;98684.18;;;18.52;75.02
65010;BME280;51556;50.002;22.014;2023-08-31T08:21:50;98683.44;;;18.39;74.99
65010;BME280;51556;50.002;22.014;2023-08-31T08:24:15;98680.50;;;18.35;75.23
65010;BME280;51556;50.002;22.014;2023-08-31T08:26:41;98682.35;;;18.29;75.22
65010;BME280;51556;50.002;22.014;2023-08-31T08:29:06;98684.35;;;18.28;76.06
65010;BME280;51556;50.002;22.014;2023-08-31T08:31:31;98686.11;;;18.31;76.36
65010;BME280;51556;50.002;22.014;2023-08-31T08:33:57;98690.05;;;18.31;76.52
65010;BME280;51556;50.002;22.014;2023-08-31T08:36:22;98688.77;;;18.26;76.24
65010;BME280;51556;50.002;22.014;2023-08-31T08:38:48;98696.77;;;18.19;76.98
65010;BME280;51556;50.002;22.014;2023-08-31T08:41:14;98699.64;;;18.21;76.94
65010;BME280;51556;50.002;22.014;2023-08-31T08:43:43;98698.92;;;18.21;76.83
65010;BME280;51556;50.002;22.014;2023-08-31T08:46:09;98703.88;;;18.24;77.23
65010;BME280;51556;50.002;22.014;2023-08-31T08:48:34;98703.61;;;18.28;77.27
65010;BME280;51556;50.002;22.014;2023-08-31T08:51:04;98705.48;;;18.32;77.18
65010;BME280;51556;50.002;22.014;2023-08-31T08:53:30;98705.21;;;18.39;77.86
65010;BME280;51556;50.002;22.014;2023-08-31T08:55:55;98704.05;;;18.48;77.98
65010;BME280;51556;50.002;22.014;2023-08-31T08:58:21;98712.80;;;18.60;78.17
65010;BME280;51556;50.002;22.014;2023-08-31T09:00:47;98715.57;;;18.69;78.21
65010;BME280;51556;50.002;22.014;2023-08-31T09:03:13;98713.57;;;18.78;78.17
65010;BME280;51556;50.002;22.014;2023-08-31T09:05:39;98711.10;;;18.85;78.16
65010;BME280;51556;50.002;22.014;2023-08-31T09:08:09;98713.64;;;18.95;78.02
65010;BME280;51556;50.002;22.014;2023-08-31T09:10:40;98716.52;;;19.02;77.65
65010;BME280;51556;50.002;22.014;2023-08-31T09:13:08;98715.73;;;19.05;77.51
65010;BME280;51556;50.002;22.014;2023-08-31T09:15:40;98720.98;;;19.10;77.79
65010;BME280;51556;50.002;22.014;2023-08-31T09:18:06;98720.14;;;19.14;77.67
65010;BME280;51556;50.002;22.014;2023-08-31T09:20:31;98718.92;;;19.18;77.50
65010;BME280;51556;50.002;22.014;2023-08-31T09:22:57;98717.57;;;19.27;77.94
65010;BME280;51556;50.002;22.014;2023-08-31T09:25:23;98724.30;;;19.30;77.19
65010;BME280;51556;50.002;22.014;2023-08-31T09:27:48;98722.57;;;19.30;77.03
65010;BME280;51556;50.002;22.014;2023-08-31T09:30:14;98724.15;;;19.35;77.18
65010;BME280;51556;50.002;22.014;2023-08-31T09:32:39;98723.00;;;19.41;76.75
65010;BME280;51556;50.002;22.014;2023-08-31T09:35:10;98720.69;;;19.41;75.64
65010;BME280;51556;50.002;22.014;2023-08-31T09:37:36;98730.27;;;19.45;75.35
65010;BME280;51556;50.002;22.014;2023-08-31T09:40:03;98732.90;;;19.40;72.85
65010;BME280;51556;50.002;22.014;2023-08-31T09:42:37;98735.58;;;19.32;72.14
65010;BME280;51556;50.002;22.014;2023-08-31T09:45:06;98733.02;;;19.23;72.08
65010;BME280;51556;50.002;22.014;2023-08-31T09:47:31;98736.95;;;19.21;72.07
65010;BME280;51556;50.002;22.014;2023-08-31T09:49:58;98741.05;;;19.23;72.85
65010;BME280;51556;50.002;22.014;2023-08-31T09:52:24;98742.88;;;19.30;73.23
65010;BME280;51556;50.002;22.014;2023-08-31T09:54:51;98748.39;;;19.41;73.49
65010;BME280;51556;50.002;22.014;2023-08-31T09:57:18;98750.16;;;19.51;72.64
65010;BME280;51556;50.002;22.014;2023-08-31T09:59:45;98752.02;;;19.50;71.82
65010;BME280;51556;50.002;22.014;2023-08-31T10:02:11;98753.95;;;19.58;72.65
65010;BME280;51556;50.002;22.014;2023-08-31T10:04:38;98753.71;;;19.68;71.76
65010;BME280;51556;50.002;22.014;2023-08-31T10:07:04;98752.73;;;19.70;70.85
65010;BME280;51556;50.002;22.014;2023-08-31T10:09:31;98753.55;;;19.73;71.48
65010;BME280;51556;50.002;22.014;2023-08-31T10:11:57;98757.42;;;19.79;71.54
65010;BME280;51556;50.002;22.014;2023-08-31T10:14:23;98756.56;;;19.81;70.38
65010;BME280;51556;50.002;22.014;2023-08-31T10:16:50;98758.34;;;19.81;70.73
65010;BME280;51556;50.002;22.014;2023-08-31T10:19:18;98758.45;;;19.87;71.28
65010;BME280;51556;50.002;22.014;2023-08-31T10:21:44;98761.34;;;19.98;70.74
65010;BME280;51556;50.002;22.014;2023-08-31T10:24:09;98759.71;;;20.06;70.02
65010;BME280;51556;50.002;22.014;2023-08-31T10:26:35;98760.35;;;20.12;69.72
65010;BME280;51556;50.002;22.014;2023-08-31T10:29:00;98756.64;;;20.19;69.42
65010;BME280;51556;50.002;22.014;2023-08-31T10:31:29;98757.70;;;20.28;69.54
65010;BME280;51556;50.002;22.014;2023-08-31T10:34:03;98762.05;;;20.40;69.20
65010;BME280;51556;50.002;22.014;2023-08-31T10:39:04;98759.63;;;20.62;69.65
65010;BME280;51556;50.002;22.014;2023-08-31T10:41:34;98763.92;;;20.72;68.64
65010;BME280;51556;50.002;22.014;2023-08-31T10:44:00;98766.42;;;20.76;69.31
65010;BME280;51556;50.002;22.014;2023-08-31T10:46:33;98763.26;;;20.76;68.81
65010;BME280;51556;50.002;22.014;2023-08-31T10:51:40;98768.25;;;20.80;69.50
65010;BME280;51556;50.002;22.014;2023-08-31T10:57:01;98774.55;;;20.82;68.56
65010;BME280;51556;50.002;22.014;2023-08-31T10:59:41;98780.54;;;20.77;68.86
65010;BME280;51556;50.002;22.014;2023-08-31T11:02:07;98784.79;;;20.72;68.24
65010;BME280;51556;50.002;22.014;2023-08-31T11:04:55;98782.38;;;20.64;67.95
65010;BME280;51556;50.002;22.014;2023-08-31T11:07:26;98785.08;;;20.57;68.29
65010;BME280;51556;50.002;22.014;2023-08-31T11:10:15;98788.95;;;20.50;67.77
65010;BME280;51556;50.002;22.014;2023-08-31T11:12:52;98783.41;;;20.46;68.43
65010;BME280;51556;50.002;22.014;2023-08-31T11:15:19;98790.79;;;20.47;68.95
65010;BME280;51556;50.002;22.014;2023-08-31T11:17:46;98788.95;;;20.48;68.63
65010;BME280;51556;50.002;22.014;2023-08-31T11:20:20;98787.09;;;20.49;68.87
65010;BME280;51556;50.002;22.014;2023-08-31T11:22:48;98785.10;;;20.56;69.04
65010;BME280;51556;50.002;22.014;2023-08-31T11:25:20;98788.10;;;20.61;68.65
65010;BME280;51556;50.002;22.014;2023-08-31T11:27:59;98787.27;;;20.61;68.86
65010;BME280;51556;50.002;22.014;2023-08-31T11:30:25;98787.06;;;20.63;68.70
65010;BME280;51556;50.002;22.014;2023-08-31T11:32:52;98787.15;;;20.67;68.87
65010;BME280;51556;50.002;22.014;2023-08-31T11:35:22;98793.25;;;20.74;68.76
65010;BME280;51556;50.002;22.014;2023-08-31T11:37:54;98786.55;;;20.73;68.42
65010;BME280;51556;50.002;22.014;2023-08-31T11:40:20;98792.26;;;20.75;68.35
65010;BME280;51556;50.002;22.014;2023-08-31T11:42:48;98791.52;;;20.78;68.28
65010;BME280;51556;50.002;22.014;2023-08-31T11:45:15;98790.18;;;20.81;68.50
65010;BME280;51556;50.002;22.014;2023-08-31T11:47:42;98791.91;;;20.82;68.04
65010;BME280;51556;50.002;22.014;2023-08-31T11:50:10;98789.45;;;20.81;68.37
65010;BME280;51556;50.002;22.014;2023-08-31T11:52:36;98790.54;;;20.86;68.56
65010;BME280;51556;50.002;22.014;2023-08-31T11:55:02;98792.87;;;20.90;68.26
65010;BME280;51556;50.002;22.014;2023-08-31T11:57:28;98793.16;;;20.87;67.40
65010;BME280;51556;50.002;22.014;2023-08-31T11:59:55;98793.04;;;20.79;67.26
65010;BME280;51556;50.002;22.014;2023-08-31T12:02:21;98795.92;;;20.69;67.38
65010;BME280;51556;50.002;22.014;2023-08-31T12:04:46;98795.38;;;20.62;67.68
65010;BME280;51556;50.002;22.014;2023-08-31T12:07:16;98795.33;;;20.58;67.84
65010;BME280;51556;50.002;22.014;2023-08-31T12:09:42;98797.48;;;20.53;67.80
65010;BME280;51556;50.002;22.014;2023-08-31T12:12:13;98793.73;;;20.55;68.08
65010;BME280;51556;50.002;22.014;2023-08-31T12:14:38;98791.50;;;20.59;68.14
65010;BME280;51556;50.002;22.014;2023-08-31T12:17:06;98793.95;;;20.69;68.85
65010;BME280;51556;50.002;22.014;2023-08-31T12:19:33;98788.27;;;20.83;68.61
65010;BME280;51556;50.002;22.014;2023-08-31T12:21:59;98787.52;;;20.95;68.26
65010;BME280;51556;50.002;22.014;2023-08-31T12:24:25;98789.02;;;21.06;68.38
65010;BME280;51556;50.002;22.014;2023-08-31T12:26:51;98789.98;;;21.14;68.01
65010;BME280;51556;50.002;22.014;2023-08-31T12:29:19;98789.50;;;21.20;67.45
65010;BME280;51556;50.002;22.014;2023-08-31T12:31:44;98787.69;;;21.31;67.52
65010;BME280;51556;50.002;22.014;2023-08-31T12:34:10;98791.27;;;21.37;66.57
65010;BME280;51556;50.002;22.014;2023-08-31T12:36:36;98788.52;;;21.44;67.48
65010;BME280;51556;50.002;22.014;2023-08-31T12:39:09;98790.14;;;21.55;66.96
65010;BME280;51556;50.002;22.014;2023-08-31T12:41:41;98794.84;;;21.63;66.44
65010;BME280;51556;50.002;22.014;2023-08-31T12:44:07;98795.30;;;21.67;66.05
65010;BME280;51556;50.002;22.014;2023-08-31T12:46:33;98799.09;;;21.71;66.15
65010;BME280;51556;50.002;22.014;2023-08-31T12:49:00;98799.70;;;21.79;65.76
65010;BME280;51556;50.002;22.014;2023-08-31T12:51:26;98799.17;;;21.83;65.18
65010;BME280;51556;50.002;22.014;2023-08-31T12:53:52;98800.86;;;21.89;65.13
65010;BME280;51556;50.002;22.014;2023-08-31T12:56:17;98801.50;;;21.96;65.01
65010;BME280;51556;50.002;22.014;2023-08-31T12:58:53;98806.90;;;21.98;63.97
65010;BME280;51556;50.002;22.014;2023-08-31T13:01:20;98811.94;;;21.93;64.18
65010;BME280;51556;50.002;22.014;2023-08-31T13:03:47;98811.16;;;21.94;63.16